Time;durP1;ratioP1;P1;durP2;ratioP2;P2;SDS_P1;SDS_P2;PMS_P1;PMS_P2;Temp;Humidity;BMP_temperature;BMP_pressure;BME280_temperature;BME280_humidity;BME280_pressure;Samples;Min_cycle;Max_cycle;Signal;HPM_P1;HPM_P2
2021/04/27 00:01:38;;;;;;;4.68;3.63;;;17.10;80.30;;;;;;4998737;28;95972;-55
2021/04/27 00:04:09;;;;;;;4.20;3.00;;;17.10;80.40;;;;;;5001509;28;95298;-52
2021/04/27 00:06:39;;;;;;;8.15;3.55;;;17.10;80.40;;;;;;4984055;28;96757;-55
2021/04/27 00:09:11;;;;;;;5.82;3.65;;;17.20;80.30;;;;;;4996584;28;96297;-52
2021/04/27 00:11:41;;;;;;;3.88;2.65;;;17.20;80.40;;;;;;5002584;28;96280;-52
2021/04/27 00:14:12;;;;;;;4.72;3.05;;;17.30;80.20;;;;;;4999518;28;99903;-51
2021/04/27 00:16:42;;;;;;;4.78;3.67;;;17.30;80.10;;;;;;4999813;28;96048;-49
2021/04/27 00:19:14;;;;;;;5.97;3.55;;;17.30;80.10;;;;;;5002761;28;95812;-51
2021/04/27 00:21:45;;;;;;;3.15;2.60;;;17.30;80.00;;;;;;4985906;28;96413;-54
2021/04/27 00:24:16;;;;;;;4.72;3.42;;;17.30;80.00;;;;;;5001218;28;98163;-54
2021/04/27 00:26:47;;;;;;;8.53;3.83;;;17.30;80.50;;;;;;4998724;28;96039;-51
2021/04/27 00:29:18;;;;;;;6.65;2.70;;;17.30;80.50;;;;;;5004118;28;95719;-55
2021/04/27 00:31:49;;;;;;;9.98;3.15;;;17.40;80.50;;;;;;4996308;28;96980;-52
2021/04/27 00:34:21;;;;;;;4.50;2.80;;;17.40;80.40;;;;;;5003730;28;95888;-55
2021/04/27 00:36:52;;;;;;;5.00;3.15;;;17.50;80.60;;;;;;5001746;28;97371;-54
2021/04/27 00:39:23;;;;;;;4.30;2.75;;;17.40;80.70;;;;;;5004157;28;95829;-53
2021/04/27 00:41:52;;;;;;;6.97;3.00;;;17.50;80.50;;;;;;4978099;28;96285;-51
2021/04/27 00:44:22;;;;;;;4.47;2.70;;;17.60;80.20;;;;;;5002039;28;95834;-55
2021/04/27 00:46:52;;;;;;;6.22;2.85;;;17.60;80.30;;;;;;4995440;28;95936;-53
2021/04/27 00:49:22;;;;;;;4.72;3.55;;;17.70;80.10;;;;;;5004123;28;95372;-50
2021/04/27 00:51:53;;;;;;;6.22;3.58;;;17.70;79.90;;;;;;5000888;28;96400;-50
2021/04/27 00:54:24;;;;;;;3.30;2.65;;;17.70;79.50;;;;;;5001316;28;95991;-51
2021/04/27 00:56:55;;;;;;;5.63;2.90;;;17.80;79.60;;;;;;4998000;28;95879;-48
2021/04/27 00:59:24;;;;;;;4.07;2.65;;;18.00;79.30;;;;;;4999078;28;95985;-54
2021/04/27 01:01:54;;;;;;;4.68;3.05;;;18.10;79.20;;;;;;5013207;28;95884;-54
2021/04/27 01:04:25;;;;;;;4.25;2.58;;;18.10;79.10;;;;;;5003957;28;95921;-52
2021/04/27 01:06:55;;;;;;;4.00;2.10;;;18.20;79.10;;;;;;5002289;28;96083;-51
2021/04/27 01:09:43;;;;;;;3.42;2.78;;;18.30;79.10;;;;;;4999327;28;95384;-52
2021/04/27 01:12:31;;;;;;;5.18;2.92;;;18.40;79.00;;;;;;5002778;28;95825;-52
2021/04/27 01:15:05;;;;;;;2.53;2.30;;;18.50;78.80;;;;;;4994640;28;95981;-50
2021/04/27 01:17:39;;;;;;;4.68;2.35;;;18.60;78.60;;;;;;5000188;28;96002;-51
2021/04/27 01:20:13;;;;;;;3.78;2.40;;;18.60;78.50;;;;;;5017767;27;95792;-53
2021/04/27 01:23:22;;;;;;;2.63;2.20;;;18.70;78.50;;;;;;5003308;28;96947;-51
2021/04/27 01:26:36;;;;;;;3.55;2.47;;;18.70;78.40;;;;;;4998262;28;97197;-53
2021/04/27 01:29:11;;;;;;;2.83;2.28;;;18.70;78.30;;;;;;4938827;28;96412;-52
2021/04/27 01:31:43;;;;;;;6.20;2.53;;;18.80;78.40;;;;;;4917219;28;96524;-58
2021/04/27 01:34:20;;;;;;;4.10;2.55;;;18.80;78.30;;;;;;4941611;28;97105;-51
2021/04/27 01:36:55;;;;;;;2.35;2.03;;;18.70;77.30;;;;;;4929963;28;97179;-54
2021/04/27 01:39:27;;;;;;;2.53;2.20;;;18.80;77.60;;;;;;4928860;28;96754;-53
2021/04/27 01:42:05;;;;;;;3.55;2.00;;;18.90;77.60;;;;;;4946731;28;97013;-54
2021/04/27 01:44:39;;;;;;;3.47;2.20;;;19.00;77.60;;;;;;4947432;28;95828;-51
2021/04/27 01:47:11;;;;;;;3.45;2.85;;;19.00;77.80;;;;;;4924302;28;97568;-52
2021/04/27 01:49:43;;;;;;;4.30;2.35;;;19.00;77.70;;;;;;4945879;28;96169;-50
2021/04/27 01:52:32;;;;;;;5.50;2.42;;;19.10;77.70;;;;;;4944143;28;96092;-55
2021/04/27 01:55:07;;;;;;;1.75;1.60;;;19.10;77.60;;;;;;4945260;28;96381;-53
2021/04/27 01:57:39;;;;;;;2.63;1.85;;;19.20;77.60;;;;;;4944611;28;95893;-51
2021/04/27 02:00:11;;;;;;;5.30;2.67;;;19.20;77.50;;;;;;4985364;28;95867;-60
2021/04/27 02:02:45;;;;;;;2.67;2.05;;;19.20;77.60;;;;;;5004280;28;96419;-56
2021/04/27 02:05:36;;;;;;;2.17;1.92;;;19.30;77.70;;;;;;4978355;28;95875;-57
2021/04/27 02:08:21;;;;;;;2.85;1.85;;;19.30;77.50;;;;;;4990188;28;96116;-53
2021/04/27 02:10:54;;;;;;;3.13;1.98;;;19.40;77.50;;;;;;4987375;28;96216;-57
2021/04/27 02:13:27;;;;;;;2.15;1.80;;;19.40;77.60;;;;;;5007927;28;96233;-54
2021/04/27 02:16:09;;;;;;;2.50;1.83;;;19.40;77.40;;;;;;4999313;28;97689;-55
2021/04/27 02:18:53;;;;;;;1.65;1.55;;;19.40;77.40;;;;;;4989317;28;97104;-55
2021/04/27 02:21:26;;;;;;;1.35;1.25;;;19.40;77.20;;;;;;5015342;28;95372;-54
2021/04/27 02:23:58;;;;;;;2.10;1.60;;;19.30;75.10;;;;;;4997478;28;95535;-55
2021/04/27 02:26:34;;;;;;;2.30;1.77;;;19.20;76.00;;;;;;4986903;28;98088;-55
2021/04/27 02:29:15;;;;;;;3.58;1.92;;;19.10;76.50;;;;;;5020379;27;96160;-53
2021/04/27 02:31:48;;;;;;;2.33;1.60;;;19.20;76.00;;;;;;4986868;28;96312;-52
2021/04/27 02:34:21;;;;;;;3.13;1.95;;;19.20;75.60;;;;;;5009862;28;95714;-50
2021/04/27 02:36:53;;;;;;;2.33;1.92;;;19.20;75.50;;;;;;5004626;28;97058;-49
2021/04/27 02:39:32;;;;;;;3.17;2.00;;;19.20;75.50;;;;;;5001278;28;96609;-53
2021/04/27 02:42:06;;;;;;;3.13;2.00;;;19.20;75.50;;;;;;5022443;28;96574;-54
2021/04/27 02:44:54;;;;;;;2.20;1.65;;;19.20;75.50;;;;;;5002308;28;95363;-57
2021/04/27 02:47:47;;;;;;;3.05;1.52;;;19.20;75.50;;;;;;4977981;28;102167;-55
2021/04/27 02:50:19;;;;;;;2.78;2.20;;;19.20;76.10;;;;;;5003248;28;95673;-56
2021/04/27 02:52:49;;;;;;;1.95;1.70;;;19.20;75.40;;;;;;4987530;28;95877;-51
2021/04/27 02:55:19;;;;;;;3.22;1.80;;;19.20;75.40;;;;;;4999214;28;95943;-51
2021/04/27 02:57:50;;;;;;;2.90;1.95;;;19.20;75.30;;;;;;5017015;28;96353;-52
2021/04/27 03:00:20;;;;;;;2.92;1.85;;;19.20;75.30;;;;;;4963037;28;95876;-52
2021/04/27 03:02:57;;;;;;;2.40;1.90;;;19.20;75.30;;;;;;5002261;28;95854;-56
2021/04/27 03:05:29;;;;;;;;;;;19.20;76.00;;;;;;4984355;28;99070;-55
2021/04/27 03:08:06;;;;;;;3.38;1.98;;;19.20;75.50;;;;;;4987636;28;97814;-51
2021/04/27 03:10:37;;;;;;;1.73;1.60;;;19.10;75.50;;;;;;5002739;28;95878;-54
2021/04/27 03:13:08;;;;;;;3.00;1.77;;;19.20;75.70;;;;;;5018239;28;95371;-52
2021/04/27 03:15:49;;;;;;;3.78;2.85;;;19.30;75.50;;;;;;5001085;28;98154;-52
2021/04/27 03:18:20;;;;;;;2.60;1.75;;;19.60;75.00;;;;;;5007946;28;96121;-52
2021/04/27 03:20:50;;;;;;;;;;;19.70;74.60;;;;;;5021027;27;98035;-52
2021/04/27 03:23:29;;;;;;;2.03;1.67;;;19.80;74.40;;;;;;5011009;28;95783;-48
2021/04/27 03:25:59;;;;;;;;;;;19.90;74.30;;;;;;5007329;28;96023;-49
2021/04/27 03:28:44;;;;;;;1.83;1.48;;;20.00;74.20;;;;;;4985680;28;96204;-54
2021/04/27 03:31:21;;;;;;;1.10;1.00;;;20.00;74.10;;;;;;4998128;28;96472;-53
2021/04/27 03:33:52;;;;;;;2.33;1.67;;;20.10;74.00;;;;;;4989789;28;95679;-50
2021/04/27 03:36:23;;;;;;;1.98;1.58;;;20.20;74.10;;;;;;4987733;28;95997;-51
2021/04/27 03:38:57;;;;;;;5.20;1.77;;;20.30;74.30;;;;;;4988651;28;98524;-53
2021/04/27 03:41:27;;;;;;;1.75;1.38;;;20.30;74.40;;;;;;5006353;28;95366;-53
2021/04/27 03:43:58;;;;;;;2.33;1.38;;;20.20;74.80;;;;;;5020915;28;95934;-52
2021/04/27 03:46:27;;;;;;;1.30;1.20;;;20.20;74.90;;;;;;4982514;28;96062;-53
2021/04/27 03:48:57;;;;;;;1.70;1.30;;;20.20;75.10;;;;;;4990578;28;98234;-54
2021/04/27 03:51:30;;;;;;;1.50;1.40;;;20.30;75.00;;;;;;5005319;28;95706;-52
2021/04/27 03:54:04;;;;;;;2.20;1.42;;;20.30;75.40;;;;;;5007725;28;96360;-55
2021/04/27 03:56:39;;;;;;;1.90;1.50;;;20.40;74.50;;;;;;5003258;28;95873;-54
2021/04/27 03:59:13;;;;;;;2.20;1.42;;;20.50;74.30;;;;;;4991176;28;98015;-53
2021/04/27 04:01:44;;;;;;;2.53;1.65;;;20.50;74.20;;;;;;4977551;28;97580;-55
2021/04/27 04:04:15;;;;;;;2.17;1.97;;;20.60;74.10;;;;;;4986210;28;96383;-55
2021/04/27 04:07:11;;;;;;;2.17;1.48;;;20.50;74.20;;;;;;5003368;28;97147;-55
2021/04/27 04:10:00;;;;;;;2.92;1.55;;;20.50;74.20;;;;;;5006814;28;96203;-55
2021/04/27 04:12:33;;;;;;;1.52;1.38;;;20.40;74.50;;;;;;5025472;28;98002;-56
2021/04/27 04:15:05;;;;;;;1.83;1.67;;;20.40;74.60;;;;;;5009201;28;96677;-53
2021/04/27 04:17:39;;;;;;;3.10;1.30;;;20.40;74.60;;;;;;5000709;28;95880;-54
2021/04/27 04:20:19;;;;;;;3.03;1.35;;;20.30;74.90;;;;;;5001630;28;95783;-55
2021/04/27 04:23:12;;;;;;;1.88;1.75;;;20.30;74.90;;;;;;5001709;28;96097;-52
2021/04/27 04:25:43;;;;;;;3.58;1.63;;;20.30;75.20;;;;;;4989719;28;95943;-55
2021/04/27 04:28:14;;;;;;;3.10;1.92;;;20.30;75.10;;;;;;5021549;27;95847;-55
2021/04/27 04:30:45;;;;;;;1.70;1.52;;;20.30;75.10;;;;;;4982117;28;97474;-54
2021/04/27 04:33:36;;;;;;;1.73;1.33;;;20.40;74.90;;;;;;5002713;28;95874;-56
2021/04/27 04:36:24;;;;;;;1.45;1.35;;;20.40;74.50;;;;;;5001605;28;95308;-55
2021/04/27 04:39:14;;;;;;;1.80;1.23;;;20.50;74.60;;;;;;5004269;28;95358;-54
2021/04/27 04:42:08;;;;;;;1.45;1.35;;;20.60;74.30;;;;;;4994104;28;95891;-54
2021/04/27 04:44:56;;;;;;;3.47;2.80;;;20.60;74.30;;;;;;5003676;28;96045;-55
2021/04/27 04:47:54;;;;;;;2.42;1.55;;;20.60;74.00;;;;;;4975914;28;95816;-53
2021/04/27 04:51:00;;;;;;;3.20;1.90;;;20.60;74.10;;;;;;5019116;28;96224;-54
2021/04/27 04:53:32;;;;;;;2.50;1.83;;;20.70;73.80;;;;;;5002619;28;95872;-57
2021/04/27 04:56:03;;;;;;;3.17;1.58;;;20.70;74.50;;;;;;5020871;27;97036;-52
2021/04/27 04:58:37;;;;;;;2.10;1.58;;;20.80;73.70;;;;;;5005413;28;95401;-56
2021/04/27 05:01:11;;;;;;;1.70;1.60;;;20.80;73.60;;;;;;4979866;28;95827;-54
2021/04/27 05:04:00;;;;;;;1.40;1.30;;;20.80;73.60;;;;;;5007498;28;97454;-54
2021/04/27 05:06:51;;;;;;;2.13;1.60;;;20.80;73.70;;;;;;5017083;28;95787;-53
2021/04/27 05:09:58;;;;;;;1.30;1.20;;;20.90;73.60;;;;;;4923715;28;96067;-55
2021/04/27 05:12:39;;;;;;;1.52;1.20;;;20.90;73.60;;;;;;4982021;28;95651;-52
2021/04/27 05:15:15;;;;;;;1.30;1.20;;;20.90;73.70;;;;;;4999098;28;95465;-55
2021/04/27 05:17:47;;;;;;;0.93;0.93;;;20.90;73.70;;;;;;5006583;28;97094;-52
2021/04/27 05:20:18;;;;;;;1.70;1.25;;;20.90;73.80;;;;;;5006109;28;95888;-56
2021/04/27 05:22:52;;;;;;;3.10;1.20;;;20.90;73.90;;;;;;5008799;28;95793;-54
2021/04/27 05:25:30;;;;;;;1.70;0.88;;;20.90;73.90;;;;;;4982630;28;96718;-58
2021/04/27 05:28:10;;;;;;;;;;;21.00;74.20;;;;;;4991501;28;97364;-58
2021/04/27 05:30:41;;;;;;;2.40;1.40;;;21.00;74.30;;;;;;5000820;28;95531;-57
2021/04/27 05:33:12;;;;;;;0.80;0.80;;;21.00;74.30;;;;;;5007241;28;95859;-53
2021/04/27 05:35:42;;;;;;;1.88;1.33;;;21.00;74.00;;;;;;5003872;28;96293;-53
2021/04/27 05:38:13;;;;;;;1.77;1.00;;;20.90;74.00;;;;;;5008060;28;96523;-56
2021/04/27 05:40:43;;;;;;;1.63;1.30;;;20.90;74.40;;;;;;5005044;28;96241;-57
2021/04/27 05:43:13;;;;;;;2.13;1.95;;;20.90;74.00;;;;;;5004138;28;96645;-57
2021/04/27 05:45:46;;;;;;;1.40;1.30;;;20.90;74.00;;;;;;4999307;27;95949;-57
2021/04/27 05:48:16;;;;;;;1.90;1.15;;;20.90;74.20;;;;;;5005631;28;95410;-55
2021/04/27 05:50:48;;;;;;;1.40;1.30;;;20.90;74.10;;;;;;5006240;28;95620;-55
2021/04/27 05:53:17;;;;;;;3.17;1.48;;;20.90;74.00;;;;;;5003920;28;96246;-57
2021/04/27 05:55:51;;;;;;;1.80;1.70;;;20.90;73.80;;;;;;5003672;28;95248;-55
2021/04/27 05:58:22;;;;;;;1.58;1.48;;;20.90;73.80;;;;;;5001463;28;95883;-53
2021/04/27 06:00:57;;;;;;;1.65;1.20;;;20.90;74.00;;;;;;4978232;28;95937;-57
2021/04/27 06:03:37;;;;;;;1.50;1.40;;;20.90;74.00;;;;;;4983766;28;95733;-54
2021/04/27 06:06:08;;;;;;;2.03;1.33;;;20.90;74.00;;;;;;5017977;28;96104;-53
2021/04/27 06:08:39;;;;;;;;;;;20.90;74.10;;;;;;4998579;28;95961;-56
2021/04/27 06:11:12;;;;;;;5.50;1.48;;;21.00;74.10;;;;;;5000093;28;95748;-58
2021/04/27 06:13:42;;;;;;;1.25;1.15;;;21.10;74.00;;;;;;5000583;28;99849;-58
2021/04/27 06:16:13;;;;;;;1.83;1.40;;;21.00;73.70;;;;;;4992378;28;97957;-55
2021/04/27 06:18:45;;;;;;;1.48;0.90;;;21.10;73.60;;;;;;4996768;28;98161;-52
2021/04/27 06:21:16;;;;;;;1.00;1.00;;;21.20;73.60;;;;;;5017037;27;96319;-54
2021/04/27 06:23:51;;;;;;;2.20;1.30;;;21.20;73.80;;;;;;5002910;28;95317;-54
2021/04/27 06:26:23;;;;;;;1.25;1.15;;;21.30;74.00;;;;;;5001658;28;95930;-56
2021/04/27 06:28:54;;;;;;;2.42;1.10;;;21.30;74.00;;;;;;5002067;28;97273;-55
2021/04/27 06:31:26;;;;;;;0.70;0.70;;;21.40;74.10;;;;;;4991992;28;95683;-53
2021/04/27 06:33:56;;;;;;;1.33;1.23;;;21.40;74.10;;;;;;4998413;28;95332;-54
2021/04/27 06:36:28;;;;;;;1.17;1.10;;;21.40;74.10;;;;;;4999316;28;96285;-56
2021/04/27 06:38:59;;;;;;;1.67;1.58;;;21.50;74.10;;;;;;5001926;28;95984;-54
2021/04/27 06:41:34;;;;;;;1.45;1.13;;;21.50;74.10;;;;;;4981740;28;95937;-56
2021/04/27 06:44:04;;;;;;;1.88;1.10;;;21.50;74.00;;;;;;5002196;28;95479;-55
2021/04/27 06:46:34;;;;;;;1.98;1.30;;;21.50;74.20;;;;;;4992329;28;97330;-54
2021/04/27 06:49:04;;;;;;;1.50;1.40;;;21.50;73.70;;;;;;4997463;28;96058;-56
2021/04/27 06:51:34;;;;;;;1.05;0.98;;;21.40;73.70;;;;;;4979088;28;96510;-57
2021/04/27 06:54:05;;;;;;;2.92;1.00;;;21.40;73.50;;;;;;4984516;28;95702;-57
2021/04/27 06:56:35;;;;;;;2.05;1.20;;;21.30;72.70;;;;;;5001582;28;95968;-58
2021/04/27 06:59:31;;;;;;;1.97;1.20;;;21.10;73.10;;;;;;4999092;28;96313;-59
2021/04/27 07:02:05;;;;;;;1.20;1.10;;;21.00;73.40;;;;;;4996714;28;95878;-57
2021/04/27 07:04:42;;;;;;;2.97;1.58;;;21.00;73.90;;;;;;5002915;28;96316;-57
2021/04/27 07:07:13;;;;;;;1.23;1.00;;;21.10;73.90;;;;;;4997775;28;95984;-55
2021/04/27 07:09:44;;;;;;;2.78;1.17;;;21.20;73.80;;;;;;5003765;28;96125;-56
2021/04/27 07:12:15;;;;;;;4.15;1.23;;;21.30;73.90;;;;;;5004514;28;95831;-56
2021/04/27 07:14:44;;;;;;;0.80;0.80;;;21.30;73.90;;;;;;5004248;28;96088;-54
2021/04/27 07:17:14;;;;;;;1.10;1.08;;;21.40;73.90;;;;;;4996801;28;97052;-54
2021/04/27 07:19:45;;;;;;;1.30;1.00;;;21.40;74.00;;;;;;5003417;28;95695;-55
2021/04/27 07:22:16;;;;;;;1.05;0.93;;;21.40;74.60;;;;;;4981818;28;95923;-56
2021/04/27 07:24:47;;;;;;;;;;;21.40;74.10;;;;;;5003994;28;96344;-58
2021/04/27 07:27:17;;;;;;;1.63;1.15;;;21.40;74.10;;;;;;5001560;28;97115;-54
2021/04/27 07:29:47;;;;;;;1.13;1.02;;;21.40;74.20;;;;;;5006465;28;97383;-56
2021/04/27 07:32:18;;;;;;;0.70;0.70;;;21.40;74.20;;;;;;4999985;28;98744;-54
2021/04/27 07:34:50;;;;;;;1.13;0.80;;;21.40;74.20;;;;;;5005666;28;96545;-57
2021/04/27 07:37:23;;;;;;;0.90;0.88;;;21.50;74.40;;;;;;5003255;28;101308;-55
2021/04/27 07:39:53;;;;;;;1.13;1.07;;;21.50;74.40;;;;;;5001362;28;95321;-54
2021/04/27 07:42:24;;;;;;;1.13;1.02;;;21.50;74.50;;;;;;5001619;28;95752;-55
2021/04/27 07:44:54;;;;;;;1.55;1.45;;;21.50;74.50;;;;;;4987234;28;96986;-53
2021/04/27 07:47:27;;;;;;;1.13;1.02;;;21.50;74.60;;;;;;4995116;28;95739;-56
2021/04/27 07:49:57;;;;;;;3.03;1.75;;;21.30;70.70;;;;;;5005243;28;96616;-55
2021/04/27 07:52:29;;;;;;;0.80;0.80;;;21.10;70.90;;;;;;5005674;28;95843;-56
2021/04/27 07:54:59;;;;;;;2.10;1.00;;;21.10;71.50;;;;;;4985479;28;95839;-57
2021/04/27 07:57:30;;;;;;;1.52;0.70;;;21.00;72.30;;;;;;5004269;28;96118;-58
2021/04/27 08:00:01;;;;;;;1.10;0.80;;;20.90;72.50;;;;;;4988522;28;95754;-58
2021/04/27 08:02:40;;;;;;;2.65;0.75;;;20.90;72.70;;;;;;5004071;28;95841;-58
2021/04/27 08:05:12;;;;;;;0.77;0.77;;;20.90;73.00;;;;;;5006597;28;97221;-57
2021/04/27 08:07:42;;;;;;;3.08;0.82;;;20.90;73.00;;;;;;5002764;28;95927;-55
2021/04/27 08:10:14;;;;;;;1.05;1.00;;;20.90;72.90;;;;;;4990209;28;97080;-55
2021/04/27 08:12:48;;;;;;;0.57;0.57;;;20.90;72.90;;;;;;4999904;28;95818;-57
2021/04/27 08:15:25;;;;;;;0.85;0.75;;;20.90;73.00;;;;;;4997325;28;95908;-53
2021/04/27 08:17:59;;;;;;;1.40;0.80;;;20.20;68.00;;;;;;5001905;28;97230;-54
2021/04/27 08:20:33;;;;;;;1.70;0.95;;;19.60;69.10;;;;;;5003391;28;95711;-54
2021/04/27 08:23:05;;;;;;;1.70;1.35;;;19.20;68.90;;;;;;5000583;28;95791;-54
2021/04/27 08:25:55;;;;;;;0.93;0.67;;;19.00;69.40;;;;;;5005192;28;96499;-54
2021/04/27 08:28:27;;;;;;;1.00;0.90;;;18.70;68.90;;;;;;4998000;28;95808;-54
2021/04/27 08:30:58;;;;;;;2.03;0.95;;;18.60;69.70;;;;;;4995985;28;95439;-52
2021/04/27 08:33:29;;;;;;;1.70;1.02;;;18.40;69.80;;;;;;5001807;28;103526;-54
2021/04/27 08:35:59;;;;;;;1.40;0.80;;;18.30;69.60;;;;;;5003775;28;97238;-54
2021/04/27 08:38:31;;;;;;;1.77;1.30;;;18.20;70.20;;;;;;5002152;28;95894;-51
2021/04/27 08:41:00;;;;;;;;;;;18.10;71.20;;;;;;5004877;28;96712;-54
2021/04/27 08:43:31;;;;;;;2.22;1.23;;;18.00;70.10;;;;;;5004511;28;95763;-51
2021/04/27 08:46:04;;;;;;;1.90;1.10;;;17.90;70.90;;;;;;4995078;28;98021;-53
2021/04/27 08:48:35;;;;;;;2.00;1.20;;;17.80;70.50;;;;;;4998352;28;96758;-56
2021/04/27 08:51:06;;;;;;;;;;;17.00;69.50;;;;;;5001440;28;96043;-54
2021/04/27 08:53:36;;;;;;;2.90;2.25;;;15.70;75.60;;;;;;5000080;28;97056;-56
2021/04/27 08:56:06;;;;;;;3.33;2.20;;;15.30;77.50;;;;;;4984430;28;96550;-57
2021/04/27 08:58:35;;;;;;;6.72;2.88;;;15.00;79.80;;;;;;5003335;28;96786;-56
2021/04/27 09:01:05;;;;;;;6.78;2.90;;;14.70;80.70;;;;;;4996633;28;97226;-57
2021/04/27 09:03:50;;;;;;;5.65;2.75;;;14.40;81.80;;;;;;4995627;28;95391;-56
2021/04/27 09:06:23;;;;;;;4.90;3.13;;;14.00;82.90;;;;;;5003209;28;95715;-56
2021/04/27 09:08:58;;;;;;;6.00;3.72;;;13.80;84.80;;;;;;5001612;28;97075;-56
2021/04/27 09:11:31;;;;;;;6.22;3.60;;;13.60;84.90;;;;;;5002470;28;96117;-57
2021/04/27 09:14:14;;;;;;;6.90;3.25;;;13.70;85.80;;;;;;5015071;27;95361;-59
2021/04/27 09:16:46;;;;;;;8.32;3.67;;;13.50;86.40;;;;;;4980081;28;96146;-56
2021/04/27 09:19:50;;;;;;;9.43;3.60;;;13.50;85.60;;;;;;4996210;28;97021;-58
2021/04/27 09:22:39;;;;;;;7.60;3.35;;;13.50;87.30;;;;;;4977700;28;96738;-54
2021/04/27 09:25:11;;;;;;;6.05;3.45;;;13.50;88.50;;;;;;5003359;28;96905;-55
2021/04/27 09:27:48;;;;;;;5.10;2.83;;;13.50;87.70;;;;;;5002506;28;95975;-57
2021/04/27 09:30:22;;;;;;;5.35;4.18;;;13.50;87.70;;;;;;4997373;28;96862;-57
2021/04/27 09:32:57;;;;;;;7.38;5.03;;;13.50;86.60;;;;;;5000371;28;95778;-58
2021/04/27 09:35:41;;;;;;;5.82;4.18;;;13.40;87.10;;;;;;4999428;28;96435;-57
2021/04/27 09:38:16;;;;;;;5.65;3.85;;;13.40;87.40;;;;;;4996300;28;96399;-59
2021/04/27 09:40:53;;;;;;;3.35;3.05;;;13.50;87.40;;;;;;5001764;28;96384;-56
2021/04/27 09:43:33;;;;;;;5.38;2.40;;;13.60;87.90;;;;;;5000601;28;95910;-56
2021/04/27 09:46:07;;;;;;;6.47;2.78;;;13.70;86.40;;;;;;5014292;27;97675;-57
2021/04/27 09:48:46;;;;;;;3.35;2.15;;;13.70;87.10;;;;;;5000927;28;103488;-58
2021/04/27 09:51:37;;;;;;;5.35;2.10;;;13.70;86.50;;;;;;5000976;28;96718;-57
2021/04/27 09:54:13;;;;;;;2.05;1.70;;;13.60;87.10;;;;;;4995421;28;102666;-58
2021/04/27 09:56:50;;;;;;;4.20;2.30;;;13.40;88.10;;;;;;5001878;28;96514;-54
2021/04/27 09:59:24;;;;;;;3.80;2.55;;;13.50;88.90;;;;;;5000004;28;96809;-53
2021/04/27 10:02:05;;;;;;;7.38;3.47;;;13.50;87.20;;;;;;4998834;28;98051;-55
2021/04/27 10:04:38;;;;;;;4.47;2.40;;;13.40;88.80;;;;;;5000481;28;96580;-55
2021/04/27 10:07:09;;;;;;;3.30;2.83;;;13.30;86.20;;;;;;5002854;28;96668;-55
2021/04/27 10:09:41;;;;;;;7.45;3.00;;;13.10;88.50;;;;;;4994374;28;95783;-55
2021/04/27 10:12:11;;;;;;;;;;;13.00;90.10;;;;;;5000718;28;96609;-56
2021/04/27 10:14:41;;;;;;;3.58;3.00;;;13.00;89.30;;;;;;5001232;28;97264;-57
2021/04/27 10:17:17;;;;;;;3.70;2.53;;;12.90;90.20;;;;;;4997022;27;95954;-57
2021/04/27 10:19:48;;;;;;;3.80;2.75;;;12.90;90.10;;;;;;4998453;28;95929;-57
2021/04/27 10:22:19;;;;;;;4.10;2.60;;;12.90;90.50;;;;;;5003778;28;95786;-57
2021/04/27 10:24:51;;;;;;;5.70;3.17;;;12.80;89.70;;;;;;4966287;28;97960;-56
2021/04/27 10:27:29;;;;;;;5.75;3.47;;;12.80;90.00;;;;;;4997069;28;96060;-56
2021/04/27 10:30:19;;;;;;;6.05;3.17;;;12.90;90.30;;;;;;5001605;28;95660;-58
2021/04/27 10:33:15;;;;;;;5.13;3.45;;;12.80;90.00;;;;;;5001045;28;96562;-56
2021/04/27 10:36:09;;;;;;;3.45;2.70;;;12.60;90.20;;;;;;4997572;28;97338;-57
2021/04/27 10:38:46;;;;;;;4.63;2.72;;;12.70;90.50;;;;;;5002235;28;95815;-56
2021/04/27 10:41:22;;;;;;;3.00;2.22;;;12.80;90.70;;;;;;4981449;28;95956;-58
2021/04/27 10:44:00;;;;;;;4.20;2.85;;;12.70;90.10;;;;;;4995700;28;95834;-55
2021/04/27 10:46:37;;;;;;;4.68;3.42;;;12.70;90.00;;;;;;5007939;27;96616;-52
2021/04/27 10:49:30;;;;;;;3.95;2.80;;;12.70;89.60;;;;;;5002677;28;95947;-58
2021/04/27 10:52:03;;;;;;;5.75;2.90;;;12.70;88.90;;;;;;5000302;28;95838;-55
2021/04/27 10:54:39;;;;;;;3.85;2.78;;;12.60;89.90;;;;;;5000761;28;96628;-57
2021/04/27 10:57:45;;;;;;;4.15;2.80;;;12.60;89.20;;;;;;5011441;27;96662;-54
2021/04/27 11:00:41;;;;;;;4.95;2.90;;;12.50;89.10;;;;;;4992401;28;95639;-56
2021/04/27 11:03:24;;;;;;;7.35;3.10;;;12.40;89.10;;;;;;4997415;28;96625;-56
2021/04/27 11:06:14;;;;;;;5.55;3.53;;;12.40;90.00;;;;;;4999880;28;95898;-56
2021/04/27 11:09:00;;;;;;;5.90;4.03;;;12.30;88.90;;;;;;4983181;28;96337;-56
2021/04/27 11:11:33;;;;;;;6.88;4.65;;;12.20;89.30;;;;;;5000404;28;96416;-55
2021/04/27 11:14:17;;;;;;;6.80;3.25;;;12.20;89.50;;;;;;4984376;28;95406;-57
2021/04/27 11:16:57;;;;;;;5.63;3.33;;;12.40;90.20;;;;;;4986257;28;98016;-57
2021/04/27 11:19:36;;;;;;;4.70;3.25;;;12.50;88.80;;;;;;4997993;28;95631;-58
2021/04/27 11:22:37;;;;;;;8.15;3.42;;;12.50;90.60;;;;;;4977907;28;96012;-57
2021/04/27 11:25:09;;;;;;;14.25;2.92;;;12.90;90.00;;;;;;5000497;28;95503;-57
2021/04/27 11:27:41;;;;;;;7.78;3.10;;;13.00;88.90;;;;;;4996095;28;97002;-57
2021/04/27 11:30:15;;;;;;;5.65;3.53;;;12.90;88.80;;;;;;4996658;28;96405;-58
2021/04/27 11:32:47;;;;;;;5.30;3.03;;;12.70;88.60;;;;;;4996866;28;95979;-57
2021/04/27 11:35:19;;;;;;;3.35;2.60;;;12.50;90.10;;;;;;4997098;28;95876;-54
2021/04/27 11:38:00;;;;;;;4.32;3.03;;;12.50;89.70;;;;;;4999835;28;96547;-58
2021/04/27 11:40:31;;;;;;;11.32;7.25;;;12.40;89.20;;;;;;5001443;28;96010;-58
2021/04/27 11:43:13;;;;;;;17.75;8.40;;;12.50;89.80;;;;;;4999546;28;96108;-55
2021/04/27 11:45:47;;;;;;;19.02;7.82;;;12.40;89.80;;;;;;5014190;27;95797;-59
2021/04/27 11:48:21;;;;;;;11.57;7.32;;;12.40;89.60;;;;;;4998937;28;96531;-56
2021/04/27 11:50:52;;;;;;;15.70;8.50;;;12.50;89.10;;;;;;4999388;28;95518;-57
2021/04/27 11:53:22;;;;;;;8.85;5.55;;;12.50;89.00;;;;;;4994984;28;95771;-56
2021/04/27 11:55:53;;;;;;;9.20;5.78;;;12.80;90.30;;;;;;4993117;28;95571;-54
2021/04/27 11:58:22;;;;;;;;;;;13.20;88.60;;;;;;4994674;28;95964;-55
2021/04/27 12:01:11;;;;;;;7.30;5.05;;;13.30;87.30;;;;;;5004878;27;95825;-54
2021/04/27 12:03:47;;;;;;;6.00;4.05;;;13.40;87.90;;;;;;4990977;28;95761;-54
2021/04/27 12:06:19;;;;;;;7.43;3.67;;;13.40;87.30;;;;;;4991081;28;95378;-55
2021/04/27 12:08:56;;;;;;;9.32;5.55;;;13.40;87.40;;;;;;5006123;28;96059;-54
2021/04/27 12:11:32;;;;;;;4.30;3.50;;;13.50;87.30;;;;;;4995074;28;95889;-57
2021/04/27 12:14:13;;;;;;;5.32;3.92;;;13.80;85.60;;;;;;4976135;28;95923;-57
2021/04/27 12:16:49;;;;;;;4.10;3.40;;;14.30;83.60;;;;;;4988684;28;95922;-57
2021/04/27 12:19:23;;;;;;;5.07;4.10;;;14.60;82.50;;;;;;4998117;28;95882;-56
2021/04/27 12:21:59;;;;;;;3.92;3.42;;;14.80;81.70;;;;;;4994694;28;95823;-56
2021/04/27 12:24:42;;;;;;;5.13;2.97;;;14.90;81.20;;;;;;4990518;28;95811;-56
2021/04/27 12:27:21;;;;;;;4.63;3.30;;;15.00;80.90;;;;;;4991503;28;95796;-58
2021/04/27 12:30:15;;;;;;;5.90;3.13;;;15.00;81.40;;;;;;4989428;28;95270;-57
2021/04/27 12:32:56;;;;;;;5.80;3.40;;;15.00;81.10;;;;;;5000600;28;101927;-57
2021/04/27 12:35:28;;;;;;;5.03;4.05;;;15.10;80.70;;;;;;5007098;28;95457;-57
2021/04/27 12:38:11;;;;;;;8.98;4.00;;;15.20;80.70;;;;;;4995834;28;95610;-57
2021/04/27 12:40:50;;;;;;;8.13;4.07;;;15.20;80.80;;;;;;4989527;28;96217;-56
2021/04/27 12:43:31;;;;;;;5.43;4.13;;;15.20;80.70;;;;;;4973654;28;95829;-59
2021/04/27 12:46:07;;;;;;;4.07;3.55;;;15.30;80.70;;;;;;4992257;28;95919;-57
2021/04/27 12:48:37;;;;;;;5.32;3.75;;;15.30;80.60;;;;;;4994611;28;96044;-55
2021/04/27 12:51:08;;;;;;;6.82;4.57;;;15.30;80.50;;;;;;4989873;28;95859;-57
2021/04/27 12:53:44;;;;;;;5.57;4.55;;;15.40;80.70;;;;;;5009082;28;95889;-57
2021/04/27 12:56:16;;;;;;;9.40;4.88;;;15.40;80.70;;;;;;4990644;28;95412;-58
2021/04/27 12:58:50;;;;;;;6.03;4.38;;;15.40;80.70;;;;;;4989989;28;95618;-58
2021/04/27 13:01:23;;;;;;;7.50;5.22;;;15.40;80.60;;;;;;5004321;28;96069;-55
2021/04/27 13:03:59;;;;;;;8.23;5.28;;;15.50;80.40;;;;;;4990851;28;96051;-58
2021/04/27 13:06:38;;;;;;;4.78;4.20;;;15.50;80.50;;;;;;4991623;28;95817;-57
2021/04/27 13:09:18;;;;;;;8.48;5.30;;;15.50;80.40;;;;;;4999684;28;95580;-57
2021/04/27 13:12:04;;;;;;;7.40;5.30;;;15.50;80.40;;;;;;4996910;28;95904;-59
2021/04/27 13:14:37;;;;;;;8.50;5.20;;;15.50;80.40;;;;;;4988454;28;95861;-56
2021/04/27 13:17:09;;;;;;;11.68;7.10;;;15.60;80.30;;;;;;4986124;28;95647;-56
2021/04/27 13:19:51;;;;;;;7.32;4.75;;;15.60;80.30;;;;;;5002084;28;95993;-56
2021/04/27 13:22:30;;;;;;;7.60;5.28;;;15.60;80.30;;;;;;4992930;28;101107;-56
2021/04/27 13:25:06;;;;;;;8.18;5.30;;;15.60;80.20;;;;;;4990832;28;95743;-56
2021/04/27 13:27:44;;;;;;;8.70;5.65;;;15.60;80.10;;;;;;5000209;28;95821;-57
2021/04/27 13:30:26;;;;;;;7.93;5.68;;;15.60;80.20;;;;;;4987138;28;96059;-57
2021/04/27 13:33:04;;;;;;;9.43;5.40;;;15.60;80.00;;;;;;4989024;28;102245;-59